sensor_id;sensor_type;location;lat;lon;timestamp;temperature;humidity
17489;DHT22;8861;52.644;4.734;2023-05-15T00:01:19;10.50;99.90
17489;DHT22;8861;52.644;4.734;2023-05-15T00:03:50;10.50;99.90
17489;DHT22;8861;52.644;4.734;2023-05-15T00:06:19;10.50;99.90
17489;DHT22;8861;52.644;4.734;2023-05-15T00:08:45;10.50;99.90
17489;DHT22;8861;52.644;4.734;2023-05-15T00:11:12;10.40;99.90
17489;DHT22;8861;52.644;4.734;2023-05-15T00:13:39;10.40;99.90
17489;DHT22;8861;52.644;4.734;2023-05-15T00:16:07;10.40;99.90
17489;DHT22;8861;52.644;4.734;2023-05-15T00:18:34;10.40;99.90
17489;DHT22;8861;52.644;4.734;2023-05-15T00:21:01;10.40;99.90
17489;DHT22;8861;52.644;4.734;2023-05-15T00:23:30;10.30;99.90
17489;DHT22;8861;52.644;4.734;2023-05-15T00:25:56;10.30;99.90
17489;DHT22;8861;52.644;4.734;2023-05-15T00:28:23;10.30;99.90
17489;DHT22;8861;52.644;4.734;2023-05-15T00:30:50;10.30;99.90
17489;DHT22;8861;52.644;4.734;2023-05-15T00:33:19;10.30;99.90
17489;DHT22;8861;52.644;4.734;2023-05-15T00:35:46;10.30;99.90
17489;DHT22;8861;52.644;4.734;2023-05-15T00:38:13;10.30;99.90
17489;DHT22;8861;52.644;4.734;2023-05-15T00:40:42;10.30;99.90
17489;DHT22;8861;52.644;4.734;2023-05-15T00:43:10;10.30;99.90
17489;DHT22;8861;52.644;4.734;2023-05-15T00:45:38;10.30;99.90
17489;DHT22;8861;52.644;4.734;2023-05-15T00:48:08;10.20;99.90
17489;DHT22;8861;52.644;4.734;2023-05-15T00:50:36;10.30;99.90
17489;DHT22;8861;52.644;4.734;2023-05-15T00:53:06;10.30;99.90
17489;DHT22;8861;52.644;4.734;2023-05-15T00:55:34;10.40;99.90
17489;DHT22;8861;52.644;4.734;2023-05-15T00:58:03;10.40;99.90
17489;DHT22;8861;52.644;4.734;2023-05-15T01:00:30;10.50;99.90
17489;DHT22;8861;52.644;4.734;2023-05-15T01:02:58;10.50;99.90
17489;DHT22;8861;52.644;4.734;2023-05-15T01:05:26;10.40;99.90
17489;DHT22;8861;52.644;4.734;2023-05-15T01:08:00;10.40;99.90
17489;DHT22;8861;52.644;4.734;2023-05-15T01:10:28;10.30;99.90
17489;DHT22;8861;52.644;4.734;2023-05-15T01:12:56;10.20;99.90
17489;DHT22;8861;52.644;4.734;2023-05-15T01:15:25;10.20;99.90
17489;DHT22;8861;52.644;4.734;2023-05-15T01:17:52;10.10;99.90
17489;DHT22;8861;52.644;4.734;2023-05-15T01:20:19;10.10;99.90
17489;DHT22;8861;52.644;4.734;2023-05-15T01:22:55;10.00;99.90
17489;DHT22;8861;52.644;4.734;2023-05-15T01:28:38;9.90;99.90
17489;DHT22;8861;52.644;4.734;2023-05-15T01:31:13;9.90;99.90
17489;DHT22;8861;52.644;4.734;2023-05-15T01:33:44;9.80;99.90
17489;DHT22;8861;52.644;4.734;2023-05-15T01:36:15;9.80;99.90
17489;DHT22;8861;52.644;4.734;2023-05-15T01:38:46;9.80;99.90
17489;DHT22;8861;52.644;4.734;2023-05-15T01:41:18;9.70;99.90
17489;DHT22;8861;52.644;4.734;2023-05-15T01:43:51;9.80;99.90
17489;DHT22;8861;52.644;4.734;2023-05-15T01:46:23;9.80;99.90
17489;DHT22;8861;52.644;4.734;2023-05-15T01:48:53;9.80;99.90
17489;DHT22;8861;52.644;4.734;2023-05-15T01:51:22;9.90;99.90
17489;DHT22;8861;52.644;4.734;2023-05-15T01:53:52;10.00;99.90
17489;DHT22;8861;52.644;4.734;2023-05-15T01:56:19;10.20;99.90
17489;DHT22;8861;52.644;4.734;2023-05-15T01:58:48;10.30;99.90
17489;DHT22;8861;52.644;4.734;2023-05-15T02:01:16;10.40;99.90
17489;DHT22;8861;52.644;4.734;2023-05-15T02:03:44;10.50;99.90
17489;DHT22;8861;52.644;4.734;2023-05-15T02:06:12;10.60;99.90
17489;DHT22;8861;52.644;4.734;2023-05-15T02:08:41;10.70;99.90
17489;DHT22;8861;52.644;4.734;2023-05-15T02:11:08;10.70;99.90
17489;DHT22;8861;52.644;4.734;2023-05-15T02:13:36;10.70;99.90
17489;DHT22;8861;52.644;4.734;2023-05-15T02:16:05;10.60;99.90
17489;DHT22;8861;52.644;4.734;2023-05-15T02:18:31;10.50;99.90
17489;DHT22;8861;52.644;4.734;2023-05-15T02:20:59;10.50;99.90
17489;DHT22;8861;52.644;4.734;2023-05-15T02:23:27;10.40;99.90
17489;DHT22;8861;52.644;4.734;2023-05-15T02:26:05;10.30;99.90
17489;DHT22;8861;52.644;4.734;2023-05-15T02:28:40;10.20;99.90
17489;DHT22;8861;52.644;4.734;2023-05-15T02:31:16;10.20;99.90
17489;DHT22;8861;52.644;4.734;2023-05-15T02:33:53;10.10;99.90
17489;DHT22;8861;52.644;4.734;2023-05-15T02:36:28;10.10;99.90
17489;DHT22;8861;52.644;4.734;2023-05-15T02:38:58;10.00;99.90
17489;DHT22;8861;52.644;4.734;2023-05-15T02:41:25;10.00;99.90
17489;DHT22;8861;52.644;4.734;2023-05-15T02:43:53;10.00;99.90
17489;DHT22;8861;52.644;4.734;2023-05-15T02:46:23;10.00;99.90
17489;DHT22;8861;52.644;4.734;2023-05-15T02:48:50;9.90;99.90
17489;DHT22;8861;52.644;4.734;2023-05-15T02:51:18;9.90;99.90
17489;DHT22;8861;52.644;4.734;2023-05-15T02:53:45;9.90;99.90
17489;DHT22;8861;52.644;4.734;2023-05-15T02:56:12;9.90;99.90
17489;DHT22;8861;52.644;4.734;2023-05-15T02:58:39;9.90;99.90
17489;DHT22;8861;52.644;4.734;2023-05-15T03:01:07;10.00;99.90
17489;DHT22;8861;52.644;4.734;2023-05-15T03:03:35;10.00;99.90
17489;DHT22;8861;52.644;4.734;2023-05-15T03:06:02;10.00;99.90
17489;DHT22;8861;52.644;4.734;2023-05-15T03:08:29;10.10;99.90
17489;DHT22;8861;52.644;4.734;2023-05-15T03:10:56;10.10;99.90
17489;DHT22;8861;52.644;4.734;2023-05-15T03:13:23;10.10;99.90
17489;DHT22;8861;52.644;4.734;2023-05-15T03:15:51;10.20;99.90
17489;DHT22;8861;52.644;4.734;2023-05-15T03:18:18;10.30;99.90
17489;DHT22;8861;52.644;4.734;2023-05-15T03:20:46;10.40;99.90
17489;DHT22;8861;52.644;4.734;2023-05-15T03:23:13;10.50;99.90
17489;DHT22;8861;52.644;4.734;2023-05-15T03:25:40;10.50;99.90
17489;DHT22;8861;52.644;4.734;2023-05-15T03:28:07;10.40;99.90
17489;DHT22;8861;52.644;4.734;2023-05-15T03:30:34;10.50;99.90
17489;DHT22;8861;52.644;4.734;2023-05-15T03:33:01;10.50;99.90
17489;DHT22;8861;52.644;4.734;2023-05-15T03:35:28;10.50;99.90
17489;DHT22;8861;52.644;4.734;2023-05-15T03:37:58;10.60;99.90
17489;DHT22;8861;52.644;4.734;2023-05-15T03:40:25;10.60;99.90
17489;DHT22;8861;52.644;4.734;2023-05-15T03:42:51;10.60;99.90
17489;DHT22;8861;52.644;4.734;2023-05-15T03:45:19;10.70;99.90
17489;DHT22;8861;52.644;4.734;2023-05-15T03:47:45;10.60;99.90
17489;DHT22;8861;52.644;4.734;2023-05-15T03:50:13;10.70;99.90
17489;DHT22;8861;52.644;4.734;2023-05-15T03:52:40;10.70;99.90
17489;DHT22;8861;52.644;4.734;2023-05-15T03:55:08;10.70;99.90
17489;DHT22;8861;52.644;4.734;2023-05-15T03:57:35;10.70;99.90
17489;DHT22;8861;52.644;4.734;2023-05-15T04:00:04;10.80;99.90
17489;DHT22;8861;52.644;4.734;2023-05-15T04:02:34;10.90;99.90
17489;DHT22;8861;52.644;4.734;2023-05-15T04:05:02;10.90;99.90
17489;DHT22;8861;52.644;4.734;2023-05-15T04:07:30;10.90;99.90
17489;DHT22;8861;52.644;4.734;2023-05-15T04:09:57;11.00;99.90
17489;DHT22;8861;52.644;4.734;2023-05-15T04:12:27;11.00;99.90
17489;DHT22;8861;52.644;4.734;2023-05-15T04:14:55;11.00;99.90
17489;DHT22;8861;52.644;4.734;2023-05-15T04:17:22;11.10;99.90
17489;DHT22;8861;52.644;4.734;2023-05-15T04:19:49;11.10;99.90
17489;DHT22;8861;52.644;4.734;2023-05-15T04:22:15;11.10;99.90
17489;DHT22;8861;52.644;4.734;2023-05-15T04:24:42;11.10;99.90
17489;DHT22;8861;52.644;4.734;2023-05-15T04:27:10;11.20;99.90
17489;DHT22;8861;52.644;4.734;2023-05-15T04:29:38;11.20;99.90
17489;DHT22;8861;52.644;4.734;2023-05-15T04:32:05;11.20;99.90
17489;DHT22;8861;52.644;4.734;2023-05-15T04:34:32;11.30;99.90
17489;DHT22;8861;52.644;4.734;2023-05-15T04:36:59;11.30;99.90
17489;DHT22;8861;52.644;4.734;2023-05-15T04:39:26;11.30;99.90
17489;DHT22;8861;52.644;4.734;2023-05-15T04:41:53;11.30;99.90
17489;DHT22;8861;52.644;4.734;2023-05-15T04:44:20;11.40;99.90
17489;DHT22;8861;52.644;4.734;2023-05-15T04:46:48;11.50;99.90
17489;DHT22;8861;52.644;4.734;2023-05-15T04:49:15;11.50;99.90
17489;DHT22;8861;52.644;4.734;2023-05-15T04:51:42;11.50;99.90
17489;DHT22;8861;52.644;4.734;2023-05-15T04:54:09;11.50;99.90
17489;DHT22;8861;52.644;4.734;2023-05-15T04:56:36;11.50;99.90
17489;DHT22;8861;52.644;4.734;2023-05-15T04:59:02;11.50;99.90
17489;DHT22;8861;52.644;4.734;2023-05-15T05:01:29;11.50;99.90
17489;DHT22;8861;52.644;4.734;2023-05-15T05:03:58;11.40;99.90
17489;DHT22;8861;52.644;4.734;2023-05-15T05:06:24;11.40;99.90
17489;DHT22;8861;52.644;4.734;2023-05-15T05:08:51;11.40;99.90
17489;DHT22;8861;52.644;4.734;2023-05-15T05:11:18;11.30;99.90
17489;DHT22;8861;52.644;4.734;2023-05-15T05:13:46;11.40;99.90
17489;DHT22;8861;52.644;4.734;2023-05-15T05:16:13;11.40;99.90
17489;DHT22;8861;52.644;4.734;2023-05-15T05:18:40;11.40;99.90
17489;DHT22;8861;52.644;4.734;2023-05-15T05:21:08;11.40;99.90
17489;DHT22;8861;52.644;4.734;2023-05-15T05:23:35;11.50;99.90
17489;DHT22;8861;52.644;4.734;2023-05-15T05:26:02;11.50;99.90
17489;DHT22;8861;52.644;4.734;2023-05-15T05:28:29;11.50;99.90
17489;DHT22;8861;52.644;4.734;2023-05-15T05:30:56;11.50;99.90
17489;DHT22;8861;52.644;4.734;2023-05-15T05:33:22;11.60;99.90
17489;DHT22;8861;52.644;4.734;2023-05-15T05:35:49;11.70;99.90
17489;DHT22;8861;52.644;4.734;2023-05-15T05:38:18;11.70;99.90
17489;DHT22;8861;52.644;4.734;2023-05-15T05:40:45;11.90;99.90
17489;DHT22;8861;52.644;4.734;2023-05-15T05:43:12;12.00;99.90
17489;DHT22;8861;52.644;4.734;2023-05-15T05:45:39;12.10;99.90
17489;DHT22;8861;52.644;4.734;2023-05-15T05:48:06;12.20;99.90
17489;DHT22;8861;52.644;4.734;2023-05-15T05:50:33;12.20;99.90
17489;DHT22;8861;52.644;4.734;2023-05-15T05:53:00;12.30;99.90
17489;DHT22;8861;52.644;4.734;2023-05-15T05:55:28;12.40;99.90
17489;DHT22;8861;52.644;4.734;2023-05-15T05:57:55;12.40;99.90
17489;DHT22;8861;52.644;4.734;2023-05-15T06:00:24;12.50;99.90
17489;DHT22;8861;52.644;4.734;2023-05-15T06:02:54;12.50;99.90
17489;DHT22;8861;52.644;4.734;2023-05-15T06:05:21;12.50;99.90
17489;DHT22;8861;52.644;4.734;2023-05-15T06:07:50;12.50;99.90
17489;DHT22;8861;52.644;4.734;2023-05-15T06:10:17;12.50;99.90
17489;DHT22;8861;52.644;4.734;2023-05-15T06:12:45;12.40;99.90
17489;DHT22;8861;52.644;4.734;2023-05-15T06:15:14;12.40;99.90
17489;DHT22;8861;52.644;4.734;2023-05-15T06:17:41;12.40;99.90
17489;DHT22;8861;52.644;4.734;2023-05-15T06:20:09;12.40;99.90
17489;DHT22;8861;52.644;4.734;2023-05-15T06:22:36;12.40;99.90
17489;DHT22;8861;52.644;4.734;2023-05-15T06:25:05;12.50;99.90
17489;DHT22;8861;52.644;4.734;2023-05-15T06:27:33;12.60;99.90
17489;DHT22;8861;52.644;4.734;2023-05-15T06:30:01;12.70;99.90
17489;DHT22;8861;52.644;4.734;2023-05-15T06:32:28;12.70;99.90
17489;DHT22;8861;52.644;4.734;2023-05-15T06:34:55;12.70;99.90
17489;DHT22;8861;52.644;4.734;2023-05-15T06:37:22;12.80;99.90
17489;DHT22;8861;52.644;4.734;2023-05-15T06:39:49;12.90;99.90
17489;DHT22;8861;52.644;4.734;2023-05-15T06:42:16;12.90;99.90
17489;DHT22;8861;52.644;4.734;2023-05-15T06:44:43;13.10;99.90
17489;DHT22;8861;52.644;4.734;2023-05-15T06:47:13;13.20;99.90
17489;DHT22;8861;52.644;4.734;2023-05-15T06:49:40;13.30;99.90
17489;DHT22;8861;52.644;4.734;2023-05-15T06:52:07;13.40;99.90
17489;DHT22;8861;52.644;4.734;2023-05-15T06:54:33;13.50;99.90
17489;DHT22;8861;52.644;4.734;2023-05-15T06:57:00;13.60;99.90
17489;DHT22;8861;52.644;4.734;2023-05-15T06:59:27;13.70;99.90
17489;DHT22;8861;52.644;4.734;2023-05-15T07:01:55;13.80;99.90
17489;DHT22;8861;52.644;4.734;2023-05-15T07:04:23;13.80;99.90
17489;DHT22;8861;52.644;4.734;2023-05-15T07:06:50;13.80;99.90
17489;DHT22;8861;52.644;4.734;2023-05-15T07:09:17;13.90;99.90
17489;DHT22;8861;52.644;4.734;2023-05-15T07:11:44;13.90;99.90
17489;DHT22;8861;52.644;4.734;2023-05-15T07:14:11;14.00;99.90
17489;DHT22;8861;52.644;4.734;2023-05-15T07:16:38;14.00;99.90
17489;DHT22;8861;52.644;4.734;2023-05-15T07:19:06;13.80;99.90
17489;DHT22;8861;52.644;4.734;2023-05-15T07:21:35;13.70;99.90
17489;DHT22;8861;52.644;4.734;2023-05-15T07:24:02;13.60;99.90
17489;DHT22;8861;52.644;4.734;2023-05-15T07:26:30;13.50;99.90
17489;DHT22;8861;52.644;4.734;2023-05-15T07:28:57;13.50;99.90
17489;DHT22;8861;52.644;4.734;2023-05-15T07:31:24;13.40;99.90
17489;DHT22;8861;52.644;4.734;2023-05-15T07:33:50;13.50;99.90
17489;DHT22;8861;52.644;4.734;2023-05-15T07:36:19;13.40;99.90
17489;DHT22;8861;52.644;4.734;2023-05-15T07:38:47;13.40;99.90
17489;DHT22;8861;52.644;4.734;2023-05-15T07:41:14;13.40;99.90
17489;DHT22;8861;52.644;4.734;2023-05-15T07:43:41;13.30;99.90
17489;DHT22;8861;52.644;4.734;2023-05-15T07:46:08;13.30;99.90
17489;DHT22;8861;52.644;4.734;2023-05-15T07:48:35;13.30;99.90
17489;DHT22;8861;52.644;4.734;2023-05-15T07:51:02;13.30;99.90
17489;DHT22;8861;52.644;4.734;2023-05-15T07:53:29;13.40;99.90
17489;DHT22;8861;52.644;4.734;2023-05-15T07:55:59;13.60;99.90
17489;DHT22;8861;52.644;4.734;2023-05-15T07:58:26;13.60;99.90
17489;DHT22;8861;52.644;4.734;2023-05-15T08:00:53;13.80;99.90
17489;DHT22;8861;52.644;4.734;2023-05-15T08:03:20;13.90;99.90
17489;DHT22;8861;52.644;4.734;2023-05-15T08:05:46;13.90;99.90
17489;DHT22;8861;52.644;4.734;2023-05-15T08:08:13;14.00;99.90
17489;DHT22;8861;52.644;4.734;2023-05-15T08:10:40;14.10;99.90
17489;DHT22;8861;52.644;4.734;2023-05-15T08:13:08;14.20;99.90
17489;DHT22;8861;52.644;4.734;2023-05-15T08:15:35;14.20;99.90
17489;DHT22;8861;52.644;4.734;2023-05-15T08:18:07;14.20;99.90
17489;DHT22;8861;52.644;4.734;2023-05-15T08:20:34;14.20;99.90
17489;DHT22;8861;52.644;4.734;2023-05-15T08:23:01;14.10;99.90
17489;DHT22;8861;52.644;4.734;2023-05-15T08:25:28;14.10;99.90
17489;DHT22;8861;52.644;4.734;2023-05-15T08:27:55;14.10;99.90
17489;DHT22;8861;52.644;4.734;2023-05-15T08:30:23;14.20;99.90
17489;DHT22;8861;52.644;4.734;2023-05-15T08:32:50;14.20;99.90
17489;DHT22;8861;52.644;4.734;2023-05-15T08:35:19;14.30;99.90
17489;DHT22;8861;52.644;4.734;2023-05-15T08:37:46;14.40;99.90
17489;DHT22;8861;52.644;4.734;2023-05-15T08:40:13;14.50;99.90
17489;DHT22;8861;52.644;4.734;2023-05-15T08:42:43;14.60;99.90
17489;DHT22;8861;52.644;4.734;2023-05-15T08:45:12;14.70;99.90
17489;DHT22;8861;52.644;4.734;2023-05-15T08:47:42;14.70;99.90
17489;DHT22;8861;52.644;4.734;2023-05-15T08:50:10;14.80;99.90
17489;DHT22;8861;52.644;4.734;2023-05-15T08:52:40;14.70;99.90
17489;DHT22;8861;52.644;4.734;2023-05-15T08:55:08;14.70;99.90
17489;DHT22;8861;52.644;4.734;2023-05-15T08:57:36;14.60;99.90
17489;DHT22;8861;52.644;4.734;2023-05-15T09:00:05;14.40;99.90
17489;DHT22;8861;52.644;4.734;2023-05-15T09:02:34;14.30;99.90
17489;DHT22;8861;52.644;4.734;2023-05-15T09:05:02;14.20;99.90
17489;DHT22;8861;52.644;4.734;2023-05-15T09:07:29;14.00;99.90
17489;DHT22;8861;52.644;4.734;2023-05-15T09:09:56;14.00;99.90
17489;DHT22;8861;52.644;4.734;2023-05-15T09:12:24;13.90;99.90
17489;DHT22;8861;52.644;4.734;2023-05-15T09:14:58;13.80;99.90
17489;DHT22;8861;52.644;4.734;2023-05-15T09:17:33;13.70;99.90
17489;DHT22;8861;52.644;4.734;2023-05-15T09:20:02;13.70;99.90
17489;DHT22;8861;52.644;4.734;2023-05-15T09:22:33;13.70;99.90
17489;DHT22;8861;52.644;4.734;2023-05-15T09:25:00;13.70;99.90
17489;DHT22;8861;52.644;4.734;2023-05-15T09:27:28;13.60;99.90
17489;DHT22;8861;52.644;4.734;2023-05-15T09:30:07;13.50;99.90
17489;DHT22;8861;52.644;4.734;2023-05-15T09:32:34;13.40;99.90
17489;DHT22;8861;52.644;4.734;2023-05-15T09:35:07;13.20;99.90
17489;DHT22;8861;52.644;4.734;2023-05-15T09:37:56;13.10;99.90
17489;DHT22;8861;52.644;4.734;2023-05-15T09:40:27;13.00;99.90
17489;DHT22;8861;52.644;4.734;2023-05-15T09:42:55;13.00;99.90
17489;DHT22;8861;52.644;4.734;2023-05-15T09:45:22;13.00;99.90
17489;DHT22;8861;52.644;4.734;2023-05-15T09:47:51;13.00;99.90
17489;DHT22;8861;52.644;4.734;2023-05-15T09:50:24;13.00;99.90
17489;DHT22;8861;52.644;4.734;2023-05-15T09:52:51;13.00;99.90
17489;DHT22;8861;52.644;4.734;2023-05-15T09:55:20;13.10;99.90
17489;DHT22;8861;52.644;4.734;2023-05-15T09:58:03;13.20;99.90
17489;DHT22;8861;52.644;4.734;2023-05-15T10:00:31;13.20;99.90
17489;DHT22;8861;52.644;4.734;2023-05-15T10:03:00;13.40;99.90
17489;DHT22;8861;52.644;4.734;2023-05-15T10:05:28;13.60;99.90
17489;DHT22;8861;52.644;4.734;2023-05-15T10:07:56;13.90;99.90
17489;DHT22;8861;52.644;4.734;2023-05-15T10:10:24;14.10;99.90
17489;DHT22;8861;52.644;4.734;2023-05-15T10:12:51;14.30;99.90
17489;DHT22;8861;52.644;4.734;2023-05-15T10:15:20;14.60;99.90
17489;DHT22;8861;52.644;4.734;2023-05-15T10:17:48;14.70;99.90
17489;DHT22;8861;52.644;4.734;2023-05-15T10:20:16;14.90;99.90
17489;DHT22;8861;52.644;4.734;2023-05-15T10:22:47;15.10;99.90
17489;DHT22;8861;52.644;4.734;2023-05-15T10:25:17;15.20;99.90
17489;DHT22;8861;52.644;4.734;2023-05-15T10:27:47;15.30;99.90
17489;DHT22;8861;52.644;4.734;2023-05-15T10:30:15;15.40;99.90
17489;DHT22;8861;52.644;4.734;2023-05-15T10:32:43;15.50;99.90
17489;DHT22;8861;52.644;4.734;2023-05-15T10:35:11;15.60;99.90
17489;DHT22;8861;52.644;4.734;2023-05-15T10:37:38;15.60;99.90
17489;DHT22;8861;52.644;4.734;2023-05-15T10:40:09;15.60;99.90
17489;DHT22;8861;52.644;4.734;2023-05-15T10:42:38;15.60;99.90
17489;DHT22;8861;52.644;4.734;2023-05-15T10:45:08;15.50;99.90
17489;DHT22;8861;52.644;4.734;2023-05-15T10:47:36;15.40;99.90
17489;DHT22;8861;52.644;4.734;2023-05-15T10:50:04;15.50;99.90
17489;DHT22;8861;52.644;4.734;2023-05-15T10:52:31;15.60;99.90
17489;DHT22;8861;52.644;4.734;2023-05-15T10:54:58;15.50;99.90
17489;DHT22;8861;52.644;4.734;2023-05-15T10:57:29;15.40;99.90
17489;DHT22;8861;52.644;4.734;2023-05-15T10:59:56;15.30;99.90
17489;DHT22;8861;52.644;4.734;2023-05-15T11:02:24;15.30;99.90
17489;DHT22;8861;52.644;4.734;2023-05-15T11:04:55;15.40;99.90
17489;DHT22;8861;52.644;4.734;2023-05-15T11:07:22;15.40;99.90
17489;DHT22;8861;52.644;4.734;2023-05-15T11:09:50;15.40;99.90
17489;DHT22;8861;52.644;4.734;2023-05-15T11:12:18;15.50;99.90
17489;DHT22;8861;52.644;4.734;2023-05-15T11:15:19;15.60;99.90
17489;DHT22;8861;52.644;4.734;2023-05-15T11:18:02;15.80;99.90
17489;DHT22;8861;52.644;4.734;2023-05-15T11:20:33;16.00;99.90
17489;DHT22;8861;52.644;4.734;2023-05-15T11:23:03;16.10;99.90
17489;DHT22;8861;52.644;4.734;2023-05-15T11:25:30;16.00;99.90
17489;DHT22;8861;52.644;4.734;2023-05-15T11:27:57;16.10;99.90
17489;DHT22;8861;52.644;4.734;2023-05-15T11:30:36;16.10;99.90
17489;DHT22;8861;52.644;4.734;2023-05-15T11:33:05;16.10;99.90
17489;DHT22;8861;52.644;4.734;2023-05-15T11:35:35;16.10;99.90
17489;DHT22;8861;52.644;4.734;2023-05-15T11:38:03;16.20;99.90
17489;DHT22;8861;52.644;4.734;2023-05-15T11:40:31;16.40;99.90
17489;DHT22;8861;52.644;4.734;2023-05-15T11:43:02;16.50;99.90
17489;DHT22;8861;52.644;4.734;2023-05-15T11:45:30;16.70;99.90
17489;DHT22;8861;52.644;4.734;2023-05-15T11:48:01;16.90;99.90
17489;DHT22;8861;52.644;4.734;2023-05-15T11:50:30;16.90;99.90
17489;DHT22;8861;52.644;4.734;2023-05-15T11:53:00;16.80;99.90
17489;DHT22;8861;52.644;4.734;2023-05-15T11:55:28;16.60;99.90
17489;DHT22;8861;52.644;4.734;2023-05-15T11:57:56;16.50;99.90
17489;DHT22;8861;52.644;4.734;2023-05-15T12:00:23;16.40;99.90
17489;DHT22;8861;52.644;4.734;2023-05-15T12:02:50;16.40;99.90
17489;DHT22;8861;52.644;4.734;2023-05-15T12:05:18;16.50;99.90
17489;DHT22;8861;52.644;4.734;2023-05-15T12:07:45;16.70;99.90
17489;DHT22;8861;52.644;4.734;2023-05-15T12:10:13;16.80;99.90
17489;DHT22;8861;52.644;4.734;2023-05-15T12:12:40;17.00;99.90
17489;DHT22;8861;52.644;4.734;2023-05-15T12:15:09;17.00;99.90
17489;DHT22;8861;52.644;4.734;2023-05-15T12:17:37;16.90;99.90
17489;DHT22;8861;52.644;4.734;2023-05-15T12:20:06;16.70;99.90
17489;DHT22;8861;52.644;4.734;2023-05-15T12:22:37;16.40;99.90
17489;DHT22;8861;52.644;4.734;2023-05-15T12:25:05;16.10;99.90
17489;DHT22;8861;52.644;4.734;2023-05-15T12:27:33;15.90;99.90
17489;DHT22;8861;52.644;4.734;2023-05-15T12:30:01;15.80;99.90
17489;DHT22;8861;52.644;4.734;2023-05-15T12:32:30;15.60;99.90
17489;DHT22;8861;52.644;4.734;2023-05-15T12:34:58;15.40;99.90
17489;DHT22;8861;52.644;4.734;2023-05-15T12:37:30;15.20;99.90
17489;DHT22;8861;52.644;4.734;2023-05-15T12:40:01;15.10;99.90
17489;DHT22;8861;52.644;4.734;2023-05-15T12:42:29;15.00;99.90
17489;DHT22;8861;52.644;4.734;2023-05-15T12:44:56;14.90;99.90
17489;DHT22;8861;52.644;4.734;2023-05-15T12:47:24;14.90;99.90
17489;DHT22;8861;52.644;4.734;2023-05-15T12:49:55;14.80;99.90
17489;DHT22;8861;52.644;4.734;2023-05-15T12:52:22;14.90;99.90
17489;DHT22;8861;52.644;4.734;2023-05-15T12:54:49;14.80;99.90
17489;DHT22;8861;52.644;4.734;2023-05-15T12:57:17;14.90;99.90
17489;DHT22;8861;52.644;4.734;2023-05-15T12:59:45;14.90;99.90
17489;DHT22;8861;52.644;4.734;2023-05-15T13:02:12;14.90;99.90
17489;DHT22;8861;52.644;4.734;2023-05-15T13:04:39;14.90;99.90
17489;DHT22;8861;52.644;4.734;2023-05-15T13:07:06;14.90;99.90
17489;DHT22;8861;52.644;4.734;2023-05-15T13:09:33;14.80;99.90
17489;DHT22;8861;52.644;4.734;2023-05-15T13:12:01;14.80;99.90
17489;DHT22;8861;52.644;4.734;2023-05-15T13:14:33;14.70;99.90
17489;DHT22;8861;52.644;4.734;2023-05-15T13:17:00;14.70;99.90
17489;DHT22;8861;52.644;4.734;2023-05-15T13:19:28;14.70;99.90
17489;DHT22;8861;52.644;4.734;2023-05-15T13:21:55;14.80;99.90
17489;DHT22;8861;52.644;4.734;2023-05-15T13:24:22;14.90;99.90
17489;DHT22;8861;52.644;4.734;2023-05-15T13:26:49;15.00;99.90
17489;DHT22;8861;52.644;4.734;2023-05-15T13:29:17;15.20;99.90
17489;DHT22;8861;52.644;4.734;2023-05-15T13:31:45;15.50;99.90
17489;DHT22;8861;52.644;4.734;2023-05-15T13:34:12;15.70;99.90
17489;DHT22;8861;52.644;4.734;2023-05-15T13:36:39;15.80;99.90
17489;DHT22;8861;52.644;4.734;2023-05-15T13:39:06;15.90;99.90
17489;DHT22;8861;52.644;4.734;2023-05-15T13:41:35;15.70;99.90
17489;DHT22;8861;52.644;4.734;2023-05-15T13:44:03;15.60;99.90
17489;DHT22;8861;52.644;4.734;2023-05-15T13:46:30;15.70;99.90
17489;DHT22;8861;52.644;4.734;2023-05-15T13:48:59;15.90;99.90
17489;DHT22;8861;52.644;4.734;2023-05-15T13:51:26;16.00;99.90
17489;DHT22;8861;52.644;4.734;2023-05-15T13:53:53;15.90;99.90
17489;DHT22;8861;52.644;4.734;2023-05-15T13:56:20;15.70;99.90
17489;DHT22;8861;52.644;4.734;2023-05-15T13:58:46;15.50;99.90
17489;DHT22;8861;52.644;4.734;2023-05-15T14:01:13;15.40;99.90
17489;DHT22;8861;52.644;4.734;2023-05-15T14:03:40;15.40;99.90
17489;DHT22;8861;52.644;4.734;2023-05-15T14:06:08;15.40;99.90
17489;DHT22;8861;52.644;4.734;2023-05-15T14:08:35;15.50;99.90
17489;DHT22;8861;52.644;4.734;2023-05-15T14:11:02;15.60;99.90
17489;DHT22;8861;52.644;4.734;2023-05-15T14:13:31;15.70;99.90
17489;DHT22;8861;52.644;4.734;2023-05-15T14:15:58;15.60;99.90
17489;DHT22;8861;52.644;4.734;2023-05-15T14:18:25;15.40;99.90
17489;DHT22;8861;52.644;4.734;2023-05-15T14:20:52;15.20;99.90
17489;DHT22;8861;52.644;4.734;2023-05-15T14:23:20;15.10;99.90
17489;DHT22;8861;52.644;4.734;2023-05-15T14:25:47;15.20;99.90
17489;DHT22;8861;52.644;4.734;2023-05-15T14:28:14;15.20;99.90
17489;DHT22;8861;52.644;4.734;2023-05-15T14:30:41;15.20;99.90
17489;DHT22;8861;52.644;4.734;2023-05-15T14:33:08;15.10;99.90
17489;DHT22;8861;52.644;4.734;2023-05-15T14:35:35;15.10;99.90
17489;DHT22;8861;52.644;4.734;2023-05-15T14:38:02;15.20;99.90
17489;DHT22;8861;52.644;4.734;2023-05-15T14:40:30;15.30;99.90
17489;DHT22;8861;52.644;4.734;2023-05-15T14:42:57;15.50;99.90
17489;DHT22;8861;52.644;4.734;2023-05-15T14:45:24;15.60;99.90
17489;DHT22;8861;52.644;4.734;2023-05-15T14:47:51;15.80;99.90
17489;DHT22;8861;52.644;4.734;2023-05-15T14:50:18;15.90;99.90
17489;DHT22;8861;52.644;4.734;2023-05-15T14:52:45;15.90;99.90
17489;DHT22;8861;52.644;4.734;2023-05-15T14:55:12;15.80;99.90
17489;DHT22;8861;52.644;4.734;2023-05-15T14:57:41;15.80;99.90
17489;DHT22;8861;52.644;4.734;2023-05-15T15:00:15;15.50;99.90
17489;DHT22;8861;52.644;4.734;2023-05-15T15:02:42;15.30;99.90
17489;DHT22;8861;52.644;4.734;2023-05-15T15:05:09;15.10;99.90
17489;DHT22;8861;52.644;4.734;2023-05-15T15:07:58;14.90;99.90
17489;DHT22;8861;52.644;4.734;2023-05-15T15:10:25;14.70;99.90
17489;DHT22;8861;52.644;4.734;2023-05-15T15:12:53;14.60;99.90
17489;DHT22;8861;52.644;4.734;2023-05-15T15:15:21;14.60;99.90
17489;DHT22;8861;52.644;4.734;2023-05-15T15:17:48;14.40;99.90
17489;DHT22;8861;52.644;4.734;2023-05-15T15:20:16;14.40;99.90
17489;DHT22;8861;52.644;4.734;2023-05-15T15:22:43;14.20;99.90
17489;DHT22;8861;52.644;4.734;2023-05-15T15:25:11;14.20;99.90
17489;DHT22;8861;52.644;4.734;2023-05-15T15:27:38;14.10;99.90
17489;DHT22;8861;52.644;4.734;2023-05-15T15:30:08;14.10;99.90
17489;DHT22;8861;52.644;4.734;2023-05-15T15:32:35;14.00;99.90
17489;DHT22;8861;52.644;4.734;2023-05-15T15:35:03;14.00;99.90
17489;DHT22;8861;52.644;4.734;2023-05-15T15:37:31;14.00;99.90
17489;DHT22;8861;52.644;4.734;2023-05-15T15:39:59;13.90;99.90
17489;DHT22;8861;52.644;4.734;2023-05-15T15:42:26;13.90;99.90
17489;DHT22;8861;52.644;4.734;2023-05-15T15:44:53;13.70;99.90
17489;DHT22;8861;52.644;4.734;2023-05-15T15:47:21;13.60;99.90
17489;DHT22;8861;52.644;4.734;2023-05-15T15:49:49;13.40;99.90
17489;DHT22;8861;52.644;4.734;2023-05-15T15:52:16;13.30;99.90
17489;DHT22;8861;52.644;4.734;2023-05-15T15:54:43;13.20;99.90
17489;DHT22;8861;52.644;4.734;2023-05-15T15:57:11;13.20;99.90